| time (UTC) | temp F | wind direction | speed knots | gust knots | rain 1hr in | rain 24hr in | rain mn in | humidity % | barometer mb |
| 20260906044559 | 69 | 0 | 0.0 | 0.0 | 0.00 | 0.01 | 0.00 | 97 | 1016.9 |
| 20260906043057 | 69 | 0 | 0.0 | 0.0 | 0.00 | 0.01 | 0.00 | 97 | 1017.0 |
| 20260906041559 | 69 | 0 | 0.0 | 0.0 | 0.00 | 0.01 | 0.00 | 97 | 1016.6 |
| 20260906034601 | 69 | 0 | 0.0 | 0.0 | 0.00 | 0.01 | 0.01 | 96 | 1017.0 |
| 20260906033054 | 69 | 0 | 0.0 | 0.0 | 0.00 | 0.01 | 0.01 | 96 | 1017.1 |
| 20260906031622 | 70 | 0 | 0.0 | 0.0 | 0.00 | 0.01 | 0.01 | 96 | 1017.4 |
| 20260906030056 | 70 | 0 | 0.0 | 0.0 | 0.00 | 0.01 | 0.01 | 96 | 1017.5 |
| 20260906024605 | 70 | 0 | 0.0 | 0.0 | 0.00 | 0.01 | 0.01 | 96 | 1017.4 |
| 20260906023109 | 70 | 0 | 0.0 | 0.0 | 0.00 | 0.01 | 0.01 | 95 | 1017.3 |
| 20260906021558 | 71 | 0 | 0.0 | 0.0 | 0.00 | 0.01 | 0.01 | 95 | 1017.0 |
| 20260906014600 | 72 | 0 | 0.0 | 0.0 | 0.00 | 0.01 | 0.01 | 94 | 1016.6 |
| 20260906013058 | 72 | 0 | 0.0 | 0.0 | 0.00 | 0.01 | 0.01 | 93 | 1016.8 |
| 20260906011612 | 72 | 0 | 0.0 | 0.0 | 0.00 | 0.01 | 0.01 | 93 | 1016.5 |
| 20260906010059 | 73 | 0 | 0.0 | 0.0 | 0.00 | 0.01 | 0.01 | 92 | 1016.5 |
| 20260906004609 | 73 | 0 | 0.0 | 0.0 | 0.00 | 0.01 | 0.01 | 92 | 1016.4 |
| 20260906003108 | 74 | 0 | 0.0 | 0.0 | 0.00 | 0.01 | 0.01 | 90 | 1016.2 |
| 20260906001611 | 74 | 0 | 0.0 | 0.0 | 0.00 | 0.01 | 0.01 | 89 | 1015.9 |
| 20260906000110 | 75 | 0 | 0.0 | 0.0 | 0.00 | 0.01 | 0.01 | 88 | 1015.8 |
| 20260905234602 | 76 | 0 | 0.0 | 0.0 | 0.00 | 0.01 | 0.01 | 84 | 1015.5 |
| 20260905233102 | 77 | 0 | 0.0 | 0.0 | 0.00 | 0.01 | 0.01 | 82 | 1015.6 |
| 20260905231605 | 78 | 0 | 0.0 | 0.0 | 0.00 | 0.01 | 0.01 | 80 | 1015.5 |
| 20260905230104 | 79 | 0 | 0.0 | 0.0 | 0.00 | 0.01 | 0.01 | 80 | 1015.4 |
| 20260905224555 | 79 | 0 | 0.0 | 0.0 | 0.00 | 0.01 | 0.01 | 78 | 1015.2 |
| 20260905223055 | 79 | 0 | 0.0 | 0.0 | 0.00 | 0.01 | 0.01 | 77 | 1015.5 |
| 20260905221624 | 80 | 0 | 0.0 | 0.0 | 0.00 | 0.01 | 0.01 | 77 | 1015.5 |
| 20260905220056 | 79 | 0 | 0.0 | 0.0 | 0.00 | 0.01 | 0.01 | 77 | 1015.5 |
| 20260905214607 | 79 | 0 | 0.0 | 0.0 | 0.00 | 0.01 | 0.01 | 77 | 1015.8 |
| 20260905213105 | 79 | 0 | 0.0 | 0.0 | 0.00 | 0.01 | 0.01 | 78 | 1015.8 |
| 20260905211556 | 78 | 0 | 0.0 | 0.0 | 0.00 | 0.01 | 0.01 | 76 | 1016.4 |
| 20260905210111 | 78 | 0 | 0.0 | 0.0 | 0.00 | 0.01 | 0.01 | 78 | 1016.6 |
| 20260905204600 | 77 | 0 | 0.0 | 0.0 | 0.00 | 0.01 | 0.01 | 77 | 1016.3 |
| 20260905203100 | 77 | 0 | 0.0 | 0.0 | 0.00 | 0.01 | 0.01 | 79 | 1016.5 |
| 20260905201556 | 76 | 0 | 0.0 | 0.0 | 0.00 | 0.01 | 0.01 | 83 | 1016.5 |
| 20260905200127 | 75 | 0 | 0.0 | 0.0 | 0.00 | 0.01 | 0.01 | 85 | 1017.0 |
| 20260905194603 | 74 | 0 | 0.0 | 0.0 | 0.00 | 0.01 | 0.01 | 88 | 1017.3 |
| 20260905193059 | 73 | 0 | 0.0 | 0.0 | 0.00 | 0.01 | 0.01 | 88 | 1017.1 |
| 20260905191554 | 72 | 0 | 0.0 | 0.0 | 0.00 | 0.01 | 0.01 | 91 | 1017.1 |
| 20260905190056 | 72 | 0 | 0.0 | 0.0 | 0.01 | 0.01 | 0.01 | 90 | 1017.4 |
| 20260905184603 | 72 | 0 | 0.0 | 0.0 | 0.01 | 0.02 | 0.01 | 89 | 1017.7 |
| 20260905183057 | 72 | 0 | 0.0 | 0.0 | 0.01 | 0.02 | 0.01 | 90 | 1018.1 |
| 20260905181555 | 76 | 0 | 0.0 | 1.7 | 0.01 | 0.02 | 0.01 | 77 | 1018.4 |
| 20260905180114 | 83 | 39 | 0.0 | 0.0 | 0.00 | 0.01 | 0.00 | 67 | 1017.9 |
| 20260905174557 | 84 | 0 | 0.0 | 0.0 | 0.00 | 0.01 | 0.00 | 69 | 1017.1 |
| 20260905173124 | 85 | 0 | 0.0 | 0.0 | 0.00 | 0.01 | 0.00 | 68 | 1017.1 |
| 20260905171603 | 86 | 0 | 0.0 | 0.0 | 0.00 | 0.01 | 0.00 | 66 | 1017.7 |
| 20260905164601 | 87 | 0 | 0.0 | 0.0 | 0.00 | 0.01 | 0.00 | 64 | 1017.3 |
| 20260905163104 | 87 | 0 | 0.0 | 0.0 | 0.00 | 0.01 | 0.00 | 65 | 1017.9 |
| 20260905161600 | 86 | 0 | 0.0 | 0.0 | 0.00 | 0.01 | 0.00 | 68 | 1018.1 |
| 20260905160101 | 85 | 0 | 0.0 | 0.0 | 0.00 | 0.01 | 0.00 | 70 | 1018.5 |
| 20260905154604 | 85 | 0 | 0.0 | 0.0 | 0.00 | 0.01 | 0.00 | 71 | 1018.4 |
| 20260905153059 | 84 | 0 | 0.0 | 0.9 | 0.00 | 0.01 | 0.00 | 73 | 1018.4 |
| 20260905151601 | 83 | 0 | 0.0 | 0.0 | 0.00 | 0.01 | 0.00 | 73 | 1018.3 |
| 20260905144555 | 82 | 0 | 0.0 | 0.0 | 0.00 | 0.01 | 0.00 | 77 | 1018.4 |
| 20260905143103 | 81 | 0 | 0.0 | 0.0 | 0.00 | 0.01 | 0.00 | 80 | 1018.4 |
| 20260905141558 | 79 | 0 | 0.0 | 0.0 | 0.00 | 0.01 | 0.00 | 85 | 1018.4 |
| 20260905140107 | 77 | 0 | 0.0 | 0.0 | 0.00 | 0.01 | 0.00 | 87 | 1018.5 |
| 20260905134606 | 75 | 0 | 0.0 | 0.0 | 0.00 | 0.01 | 0.00 | 91 | 1018.6 |
| 20260905133057 | 74 | 0 | 0.0 | 0.0 | 0.00 | 0.01 | 0.00 | 95 | 1018.6 |
| 20260905131601 | 72 | 0 | 0.0 | 0.0 | 0.00 | 0.01 | 0.00 | 98 | 1018.7 |
| 20260905130101 | 71 | 0 | 0.0 | 0.0 | 0.00 | 0.01 | 0.00 | 99 | 1018.9 |
| 20260905124600 | 69 | 0 | 0.0 | 0.0 | 0.00 | 0.01 | 0.00 | 98 | 1018.8 |
| 20260905123102 | 68 | 0 | 0.0 | 0.0 | 0.00 | 0.01 | 0.00 | 98 | 1018.8 |
| 20260905121603 | 68 | 0 | 0.0 | 0.0 | 0.00 | 0.01 | 0.00 | 98 | 1018.6 |
| 20260905120109 | 67 | 0 | 0.0 | 0.0 | 0.00 | 0.01 | 0.00 | 98 | 1018.5 |
| 20260905114611 | 67 | 0 | 0.0 | 0.0 | 0.00 | 0.01 | 0.00 | 98 | 1018.4 |
| 20260905113102 | 66 | 0 | 0.0 | 0.0 | 0.00 | 0.01 | 0.00 | 98 | 1018.4 |
| 20260905111651 | 66 | 0 | 0.0 | 0.0 | 0.00 | 0.01 | 0.00 | 97 | 1018.2 |
| 20260905104609 | 67 | 0 | 0.0 | 0.0 | 0.00 | 0.01 | 0.00 | 97 | 1017.7 |
| 20260905103105 | 67 | 0 | 0.0 | 0.0 | 0.00 | 0.01 | 0.00 | 98 | 1017.6 |
| 20260905101609 | 67 | 0 | 0.0 | 0.0 | 0.00 | 0.01 | 0.00 | 97 | 1017.4 |
| 20260905100116 | 67 | 0 | 0.0 | 0.0 | 0.00 | 0.01 | 0.00 | 97 | 1017.4 |
| 20260905094608 | 67 | 0 | 0.0 | 0.0 | 0.00 | 0.01 | 0.00 | 98 | 1017.4 |
| 20260905093123 | 67 | 0 | 0.0 | 0.0 | 0.00 | 0.01 | 0.00 | 97 | 1017.5 |
| 20260905091610 | 68 | 0 | 0.0 | 0.0 | 0.00 | 0.01 | 0.00 | 97 | 1017.6 |
| 20260905090105 | 68 | 0 | 0.0 | 0.0 | 0.00 | 0.01 | 0.00 | 97 | 1017.6 |
| 20260905084609 | 68 | 0 | 0.0 | 0.0 | 0.00 | 0.01 | 0.00 | 97 | 1017.8 |
| 20260905083101 | 68 | 0 | 0.0 | 0.0 | 0.00 | 0.01 | 0.00 | 97 | 1018.1 |
| 20260905081557 | 68 | 0 | 0.0 | 0.0 | 0.00 | 0.01 | 0.00 | 97 | 1018.1 |
| 20260905080055 | 68 | 0 | 0.0 | 0.0 | 0.00 | 0.01 | 0.00 | 97 | 1018.3 |
| 20260905074611 | 68 | 0 | 0.0 | 0.0 | 0.00 | 0.01 | 0.00 | 97 | 1018.2 |
| 20260905073102 | 68 | 0 | 0.0 | 0.0 | 0.00 | 0.01 | 0.00 | 97 | 1018.4 |
| 20260905071602 | 69 | 0 | 0.0 | 0.0 | 0.00 | 0.01 | 0.00 | 97 | 1018.5 |
| 20260905070058 | 69 | 0 | 0.0 | 0.0 | 0.00 | 0.01 | 0.00 | 97 | 1018.5 |
| 20260905064624 | 69 | 0 | 0.0 | 0.0 | 0.00 | 0.01 | 0.00 | 97 | 1018.6 |
| 20260905063103 | 69 | 0 | 0.0 | 0.0 | 0.00 | 0.01 | 0.00 | 97 | 1018.6 |
| 20260905061603 | 69 | 0 | 0.0 | 0.0 | 0.00 | 0.01 | 0.00 | 97 | 1018.8 |
| 20260905060106 | 70 | 0 | 0.0 | 0.0 | 0.00 | 0.01 | 0.00 | 97 | 1018.9 |
| 20260905054559 | 70 | 0 | 0.0 | 0.0 | 0.00 | 0.01 | 0.00 | 97 | 1019.2 |
| 20260905053059 | 70 | 0 | 0.0 | 0.0 | 0.00 | 0.01 | 0.00 | 97 | 1019.3 |
| 20260905051556 | 70 | 0 | 0.0 | 0.0 | 0.00 | 0.01 | 0.00 | 96 | 1019.3 |
| 20260905050058 | 70 | 0 | 0.0 | 0.0 | 0.00 | 0.01 | 0.00 | 96 | 1019.2 |